Time;durP1;ratioP1;P1;durP2;ratioP2;P2;SDS_P1;SDS_P2;PMS_P1;PMS_P2;Temp;Humidity;BMP_temperature;BMP_pressure;BME280_temperature;BME280_humidity;BME280_pressure;Samples;Min_cycle;Max_cycle;Signal;HPM_P1;HPM_P2
2022/01/07 00:01:08;;;;;;;6.13;2.08;;;19.70;52.30;;;;;;4495378;31;20146;-65
2022/01/07 00:03:34;;;;;;;6.15;1.60;;;19.70;52.30;;;;;;4496847;31;20144;-66
2022/01/07 00:06:00;;;;;;;6.63;2.17;;;19.60;52.30;;;;;;4496831;31;20209;-66
2022/01/07 00:08:28;;;;;;;7.70;1.92;;;19.60;52.30;;;;;;4483081;31;20237;-65
2022/01/07 00:10:54;;;;;;;5.55;1.92;;;19.60;53.30;;;;;;4497120;31;20124;-65
2022/01/07 00:13:19;;;;;;;6.18;1.55;;;19.60;52.40;;;;;;4496761;31;20176;-65
2022/01/07 00:15:45;;;;;;;7.22;1.90;;;19.60;52.40;;;;;;4482903;31;20136;-65
2022/01/07 00:18:11;;;;;;;6.45;2.00;;;19.60;52.40;;;;;;4496879;31;20101;-65
2022/01/07 00:20:39;;;;;;;4.97;1.65;;;19.50;52.40;;;;;;4496789;31;20266;-66
2022/01/07 00:23:05;;;;;;;4.07;1.52;;;19.50;52.50;;;;;;4496850;31;20140;-66
2022/01/07 00:25:31;;;;;;;3.10;1.48;;;19.60;52.50;;;;;;4495941;31;20132;-65
2022/01/07 00:27:58;;;;;;;5.00;1.67;;;19.50;52.50;;;;;;4496850;31;20120;-65
2022/01/07 00:30:24;;;;;;;6.53;2.10;;;19.50;52.50;;;;;;4496488;31;20136;-66
2022/01/07 00:32:50;;;;;;;3.20;1.50;;;19.50;52.50;;;;;;4497155;31;20144;-65
2022/01/07 00:35:18;;;;;;;5.70;2.00;;;19.50;52.50;;;;;;4496619;31;20120;-66
2022/01/07 00:37:45;;;;;;;4.97;1.83;;;19.40;52.50;;;;;;4496705;31;20151;-65
2022/01/07 00:40:15;;;;;;;4.20;1.73;;;19.40;52.50;;;;;;4496504;31;20121;-66
2022/01/07 00:42:41;;;;;;;5.50;1.63;;;19.40;52.50;;;;;;4495619;31;20217;-66
2022/01/07 00:45:08;;;;;;;5.18;1.83;;;19.40;52.60;;;;;;4496420;31;20136;-65
2022/01/07 00:47:34;;;;;;;3.67;1.40;;;19.40;52.60;;;;;;4496640;31;20180;-66
2022/01/07 00:50:00;;;;;;;5.68;1.90;;;19.30;52.60;;;;;;4496603;32;20301;-66
2022/01/07 00:52:26;;;;;;;5.28;1.63;;;19.30;52.60;;;;;;4495576;32;20152;-65
2022/01/07 00:54:52;;;;;;;8.25;2.00;;;19.30;52.60;;;;;;4494769;32;20225;-66
2022/01/07 00:57:18;;;;;;;3.72;1.30;;;19.30;52.60;;;;;;4495543;32;20278;-66
2022/01/07 00:59:47;;;;;;;4.75;1.92;;;19.30;52.60;;;;;;4495947;31;20182;-65
2022/01/07 01:02:14;;;;;;;4.63;1.60;;;19.30;52.70;;;;;;4493409;32;20182;-66
2022/01/07 01:04:41;;;;;;;4.53;1.55;;;19.30;52.70;;;;;;4496962;31;20609;-66
2022/01/07 01:07:06;;;;;;;3.53;1.42;;;19.20;52.60;;;;;;4498995;31;20159;-66
2022/01/07 01:09:32;;;;;;;7.35;1.70;;;19.20;52.70;;;;;;4498840;31;20489;-65
2022/01/07 01:12:00;;;;;;;5.53;1.52;;;19.20;52.70;;;;;;4498829;31;20117;-66
2022/01/07 01:14:26;;;;;;;3.08;1.50;;;19.20;52.70;;;;;;4498516;31;20148;-66
2022/01/07 01:16:52;;;;;;;4.68;1.60;;;19.20;52.70;;;;;;4498993;31;20128;-66
2022/01/07 01:19:18;;;;;;;5.53;1.70;;;19.20;52.80;;;;;;4484220;31;20214;-66
2022/01/07 01:21:44;;;;;;;4.05;1.38;;;19.20;52.80;;;;;;4498801;31;20290;-66
2022/01/07 01:24:10;;;;;;;4.03;1.60;;;19.10;52.80;;;;;;4497513;31;20113;-65
2022/01/07 01:26:36;;;;;;;2.85;1.52;;;19.20;52.90;;;;;;4498750;31;20151;-66
2022/01/07 01:29:02;;;;;;;3.70;1.40;;;19.10;52.70;;;;;;4482597;31;20321;-66
2022/01/07 01:31:30;;;;;;;3.80;1.42;;;19.10;52.80;;;;;;4498279;31;20203;-65
2022/01/07 01:33:56;;;;;;;4.55;1.52;;;19.10;52.80;;;;;;4498628;31;20306;-66
2022/01/07 01:36:22;;;;;;;4.47;1.55;;;19.10;52.80;;;;;;4497150;31;20144;-66
2022/01/07 01:38:48;;;;;;;3.40;1.85;;;19.10;52.90;;;;;;4498161;31;20594;-66
2022/01/07 01:41:14;;;;;;;4.03;1.40;;;19.10;52.80;;;;;;4498363;31;20266;-66
2022/01/07 01:43:40;;;;;;;6.03;1.92;;;19.00;52.80;;;;;;4498255;31;20109;-66
2022/01/07 01:46:06;;;;;;;4.20;1.35;;;19.00;52.80;;;;;;4482036;31;20148;-66
2022/01/07 01:48:32;;;;;;;5.15;1.40;;;19.00;52.80;;;;;;4498124;31;20140;-66
2022/01/07 01:51:01;;;;;;;3.05;1.30;;;19.00;52.80;;;;;;4498214;31;20136;-66
2022/01/07 01:53:27;;;;;;;3.22;1.50;;;19.00;52.80;;;;;;4496215;31;20132;-66
2022/01/07 01:55:53;;;;;;;4.13;1.55;;;19.00;52.80;;;;;;4495789;31;20145;-66
2022/01/07 01:58:22;;;;;;;3.65;1.20;;;19.00;52.80;;;;;;4495199;31;20271;-66
2022/01/07 02:00:48;;;;;;;4.43;1.52;;;18.90;52.70;;;;;;4483323;31;20129;-66
2022/01/07 02:03:14;;;;;;;2.60;1.17;;;18.90;52.70;;;;;;4497183;31;20190;-66
2022/01/07 02:05:39;;;;;;;3.85;1.40;;;18.90;52.70;;;;;;4497457;31;20250;-66
2022/01/07 02:08:05;;;;;;;3.10;1.42;;;18.90;52.80;;;;;;4497511;31;20147;-66
2022/01/07 02:10:31;;;;;;;3.78;1.55;;;18.90;52.70;;;;;;4497119;31;20274;-65
2022/01/07 02:12:57;;;;;;;2.80;1.10;;;18.90;52.70;;;;;;4481033;31;20153;-66
2022/01/07 02:15:23;;;;;;;3.05;1.20;;;18.90;52.70;;;;;;4480656;32;20163;-66
2022/01/07 02:17:50;;;;;;;4.15;1.55;;;18.90;52.70;;;;;;4496654;31;20153;-66
2022/01/07 02:20:18;;;;;;;3.63;1.50;;;18.90;52.70;;;;;;4496238;31;20124;-66
2022/01/07 02:22:45;;;;;;;5.55;1.60;;;18.90;52.70;;;;;;4483208;31;20143;-66
2022/01/07 02:25:12;;;;;;;3.38;1.60;;;18.80;52.60;;;;;;4497329;31;20134;-66
2022/01/07 02:27:39;;;;;;;3.45;1.27;;;18.80;52.60;;;;;;4496711;31;20152;-66
2022/01/07 02:30:07;;;;;;;4.50;1.58;;;18.80;52.60;;;;;;4497164;31;20269;-66
2022/01/07 02:32:33;;;;;;;2.63;1.30;;;18.80;52.50;;;;;;4482597;31;20210;-66
2022/01/07 02:34:59;;;;;;;2.90;1.25;;;18.80;52.60;;;;;;4497148;31;20144;-66
2022/01/07 02:37:27;;;;;;;3.70;1.35;;;18.80;53.50;;;;;;4496464;31;20148;-66
2022/01/07 02:39:54;;;;;;;2.92;1.20;;;18.70;52.50;;;;;;4497362;31;20120;-66
2022/01/07 02:42:20;;;;;;;3.47;1.42;;;18.70;52.50;;;;;;4494222;31;20144;-66
2022/01/07 02:44:46;;;;;;;4.28;1.40;;;18.70;52.40;;;;;;4483468;31;20143;-66
2022/01/07 02:47:12;;;;;;;2.67;1.27;;;18.70;53.30;;;;;;4496477;31;20605;-65
2022/01/07 02:49:38;;;;;;;5.35;1.50;;;18.70;52.40;;;;;;4482660;31;20136;-66
2022/01/07 02:52:04;;;;;;;4.22;1.30;;;18.70;52.50;;;;;;4497056;31;20333;-66
2022/01/07 02:54:30;;;;;;;3.42;1.50;;;18.70;52.50;;;;;;4482504;31;20597;-66
2022/01/07 02:56:56;;;;;;;2.97;1.40;;;18.70;52.30;;;;;;4496707;31;20653;-66
2022/01/07 02:59:22;;;;;;;4.35;1.40;;;18.70;52.30;;;;;;4494380;31;20194;-66
2022/01/07 03:01:48;;;;;;;3.20;1.42;;;18.70;52.40;;;;;;4480409;31;20180;-66
2022/01/07 03:04:14;;;;;;;3.30;1.33;;;18.60;52.20;;;;;;4496542;31;20129;-66
2022/01/07 03:06:41;;;;;;;2.92;1.27;;;18.60;52.20;;;;;;4482198;31;20259;-66
2022/01/07 03:09:07;;;;;;;3.20;1.23;;;18.70;52.30;;;;;;4496559;31;20245;-66
2022/01/07 03:11:34;;;;;;;4.10;1.50;;;18.60;52.20;;;;;;4496340;31;20585;-66
2022/01/07 03:14:00;;;;;;;2.55;1.40;;;18.60;52.30;;;;;;4496445;31;20557;-66
2022/01/07 03:16:26;;;;;;;2.40;1.20;;;18.60;52.20;;;;;;4495143;31;20164;-66
2022/01/07 03:18:52;;;;;;;3.78;1.30;;;18.60;52.30;;;;;;4494164;31;20129;-66
2022/01/07 03:21:18;;;;;;;3.53;1.40;;;18.60;52.30;;;;;;4496754;31;20132;-66
2022/01/07 03:23:45;;;;;;;2.30;1.00;;;18.60;52.30;;;;;;4496644;31;20139;-66
2022/01/07 03:26:11;;;;;;;3.97;1.23;;;18.60;52.40;;;;;;4496868;31;20120;-66
2022/01/07 03:28:38;;;;;;;2.60;1.25;;;18.60;52.40;;;;;;4494394;31;20157;-66
2022/01/07 03:31:05;;;;;;;3.38;1.10;;;18.60;52.30;;;;;;4497091;31;20140;-66
2022/01/07 03:33:31;;;;;;;3.10;1.50;;;18.50;52.20;;;;;;4497031;31;20186;-66
2022/01/07 03:35:57;;;;;;;1.75;1.13;;;18.50;52.20;;;;;;4482234;31;20157;-66
2022/01/07 03:38:23;;;;;;;2.42;0.90;;;18.50;52.20;;;;;;4494446;31;20505;-66
2022/01/07 03:40:49;;;;;;;3.67;1.48;;;18.50;52.20;;;;;;4496659;31;20120;-66
2022/01/07 03:43:15;;;;;;;3.15;1.35;;;18.50;52.20;;;;;;4483286;31;20146;-66
2022/01/07 03:45:41;;;;;;;3.17;1.27;;;18.50;52.30;;;;;;4497284;31;20140;-66
2022/01/07 03:48:07;;;;;;;2.15;1.02;;;18.50;52.30;;;;;;4497382;31;20120;-66
2022/01/07 03:50:33;;;;;;;2.42;1.23;;;18.50;52.30;;;;;;4497330;31;20137;-65
2022/01/07 03:53:00;;;;;;;3.45;1.10;;;18.50;52.20;;;;;;4497308;31;20150;-66
2022/01/07 03:55:29;;;;;;;2.35;1.00;;;18.40;52.20;;;;;;4497176;31;20163;-66
2022/01/07 03:57:55;;;;;;;3.05;1.05;;;18.40;52.20;;;;;;4497078;31;20645;-66
2022/01/07 04:00:25;;;;;;;2.47;1.08;;;18.40;52.20;;;;;;4497270;31;20145;-65
2022/01/07 04:02:52;;;;;;;2.58;1.15;;;18.50;52.20;;;;;;4497384;31;20145;-66
2022/01/07 04:05:21;;;;;;;3.53;1.17;;;18.40;52.20;;;;;;4497179;31;20136;-66
2022/01/07 04:07:48;;;;;;;2.88;1.02;;;18.40;52.20;;;;;;4496214;31;20132;-66
2022/01/07 04:10:13;;;;;;;2.30;1.20;;;18.40;52.20;;;;;;4496732;31;20154;-66
2022/01/07 04:12:39;;;;;;;2.58;1.00;;;18.40;52.20;;;;;;4482521;31;20128;-66
2022/01/07 04:15:09;;;;;;;2.00;1.20;;;18.30;52.10;;;;;;4497078;31;20124;-66
2022/01/07 04:17:40;;;;;;;2.08;1.00;;;18.40;52.20;;;;;;4496790;31;20167;-66
2022/01/07 04:20:08;;;;;;;3.15;1.27;;;18.40;52.10;;;;;;4497125;31;20134;-66
2022/01/07 04:22:35;;;;;;;2.67;1.05;;;18.40;52.10;;;;;;4495792;31;20147;-66
2022/01/07 04:25:04;;;;;;;2.78;1.30;;;18.30;52.10;;;;;;4496911;31;20167;-66
2022/01/07 04:27:31;;;;;;;2.22;0.93;;;18.30;52.10;;;;;;4495695;31;20152;-66
2022/01/07 04:29:57;;;;;;;3.03;1.10;;;18.30;52.10;;;;;;4495293;31;20152;-66
2022/01/07 04:32:22;;;;;;;1.88;1.05;;;18.30;52.20;;;;;;4493891;31;20132;-66
2022/01/07 04:34:49;;;;;;;2.13;1.00;;;18.30;52.20;;;;;;4494948;31;20278;-66
2022/01/07 04:37:15;;;;;;;1.73;1.10;;;18.30;52.20;;;;;;4495821;31;20251;-65
2022/01/07 04:39:41;;;;;;;2.50;1.13;;;18.30;52.20;;;;;;4495070;31;20142;-66
2022/01/07 04:42:08;;;;;;;2.50;1.00;;;18.30;52.30;;;;;;4495783;31;20132;-66
2022/01/07 04:44:38;;;;;;;2.08;0.95;;;18.30;52.30;;;;;;4496313;31;20611;-66
2022/01/07 04:47:04;;;;;;;1.88;0.98;;;18.30;52.20;;;;;;4496799;31;20162;-66
2022/01/07 04:49:30;;;;;;;3.08;1.17;;;18.20;52.20;;;;;;4496712;32;20136;-66
2022/01/07 04:51:56;;;;;;;2.25;0.93;;;18.30;52.20;;;;;;4482089;32;20132;-66
2022/01/07 04:54:22;;;;;;;1.98;0.98;;;18.20;52.20;;;;;;4496740;32;20133;-66
2022/01/07 04:56:47;;;;;;;1.95;0.88;;;18.20;52.20;;;;;;4495382;32;20234;-66
2022/01/07 04:59:13;;;;;;;1.48;0.88;;;18.20;52.20;;;;;;4496562;32;20213;-66
2022/01/07 05:01:39;;;;;;;2.78;0.90;;;18.20;52.20;;;;;;4496291;32;20124;-65
2022/01/07 05:04:05;;;;;;;2.20;1.00;;;18.20;52.20;;;;;;4495677;32;20573;-66
2022/01/07 05:07:04;;;;;;;2.25;0.82;;;18.20;52.30;;;;;;4496614;32;20525;-66
2022/01/07 05:09:23;;;;;;;1.25;0.98;;;18.20;52.30;;;;;;4484590;32;20148;-66
2022/01/07 05:11:51;;;;;;;1.73;0.80;;;18.20;52.30;;;;;;4496206;32;20467;-66
2022/01/07 05:14:18;;;;;;;1.67;0.93;;;18.20;52.30;;;;;;4496540;32;20276;-66
2022/01/07 05:16:44;;;;;;;2.28;1.13;;;18.20;52.30;;;;;;4496447;32;20121;-65
2022/01/07 05:19:10;;;;;;;1.70;1.00;;;18.10;52.30;;;;;;4496449;32;20125;-65
2022/01/07 05:21:37;;;;;;;1.95;1.10;;;18.10;52.30;;;;;;4496459;32;20120;-66
2022/01/07 05:24:04;;;;;;;1.60;0.90;;;18.10;52.30;;;;;;4496563;32;20124;-66
2022/01/07 05:26:31;;;;;;;1.20;0.98;;;18.10;52.40;;;;;;4496401;32;20139;-66
2022/01/07 05:28:57;;;;;;;2.10;1.10;;;18.10;52.40;;;;;;4496155;32;20123;-66
2022/01/07 05:31:23;;;;;;;1.77;1.10;;;18.10;52.30;;;;;;4496498;32;20136;-65
2022/01/07 05:33:50;;;;;;;2.35;1.05;;;18.10;52.40;;;;;;4496167;32;20137;-66
2022/01/07 05:36:17;;;;;;;1.55;0.82;;;18.10;52.40;;;;;;4496327;32;20271;-66
2022/01/07 05:38:43;;;;;;;2.15;1.00;;;18.10;52.40;;;;;;4494893;32;20132;-65
2022/01/07 05:41:09;;;;;;;1.80;1.00;;;18.00;52.40;;;;;;4482401;32;20179;-65
2022/01/07 05:43:34;;;;;;;2.08;1.02;;;18.00;52.40;;;;;;4496314;32;20124;-66
2022/01/07 05:46:05;;;;;;;1.60;0.70;;;18.00;52.40;;;;;;4496022;32;20271;-66
2022/01/07 05:48:32;;;;;;;1.17;0.70;;;18.00;52.40;;;;;;4496522;32;20120;-66
2022/01/07 05:50:58;;;;;;;1.77;0.80;;;18.00;52.50;;;;;;4496220;31;20132;-66
2022/01/07 05:53:24;;;;;;;1.45;0.85;;;18.00;52.50;;;;;;4498930;31;20164;-66
2022/01/07 05:55:50;;;;;;;1.90;0.85;;;18.00;52.60;;;;;;4498991;31;20139;-65
2022/01/07 05:58:15;;;;;;;1.08;0.82;;;18.00;52.60;;;;;;4499202;31;20120;-66
2022/01/07 06:00:41;;;;;;;2.00;0.80;;;18.00;52.60;;;;;;4498876;31;20120;-66
2022/01/07 06:03:07;;;;;;;1.90;0.90;;;17.90;52.60;;;;;;4484606;31;20291;-65
2022/01/07 06:05:33;;;;;;;1.83;1.00;;;17.90;52.60;;;;;;4499040;31;20477;-66
2022/01/07 06:07:59;;;;;;;2.03;0.80;;;17.90;52.60;;;;;;4484715;31;20593;-65
2022/01/07 06:10:24;;;;;;;1.20;0.65;;;17.90;52.60;;;;;;4484699;31;20136;-66
2022/01/07 06:12:50;;;;;;;1.38;0.70;;;17.90;52.60;;;;;;4497461;31;20127;-65
2022/01/07 06:15:16;;;;;;;1.65;0.68;;;17.90;52.60;;;;;;4499018;31;20124;-66
2022/01/07 06:17:42;;;;;;;1.33;0.68;;;17.90;52.70;;;;;;4498703;31;20167;-66
2022/01/07 06:20:08;;;;;;;1.00;0.70;;;17.90;52.70;;;;;;4484324;31;20116;-66
2022/01/07 06:22:34;;;;;;;1.58;0.93;;;17.90;52.70;;;;;;4498924;31;20136;-66
2022/01/07 06:25:01;;;;;;;1.63;0.80;;;17.90;52.70;;;;;;4484235;31;20673;-66
2022/01/07 06:27:28;;;;;;;1.67;0.80;;;17.90;52.70;;;;;;4498452;31;20505;-66
2022/01/07 06:29:54;;;;;;;1.67;0.70;;;17.90;52.80;;;;;;4484448;31;20121;-66
2022/01/07 06:32:20;;;;;;;2.53;0.95;;;17.90;52.80;;;;;;4484578;31;20141;-66
2022/01/07 06:34:46;;;;;;;1.80;0.80;;;17.90;52.80;;;;;;4498633;31;20129;-66
2022/01/07 06:37:12;;;;;;;1.13;0.65;;;17.90;52.80;;;;;;4484274;31;20316;-66
2022/01/07 06:39:38;;;;;;;2.10;0.85;;;17.80;52.70;;;;;;4484192;31;20124;-66
2022/01/07 06:42:05;;;;;;;1.35;0.70;;;17.90;52.80;;;;;;4484023;31;20197;-66
2022/01/07 06:44:31;;;;;;;1.98;0.95;;;17.80;52.80;;;;;;4498281;31;20128;-66
2022/01/07 06:46:57;;;;;;;1.05;0.80;;;17.80;52.80;;;;;;4498053;31;20151;-66
2022/01/07 06:49:22;;;;;;;1.13;0.65;;;17.80;52.80;;;;;;4498342;31;20244;-66
2022/01/07 06:51:50;;;;;;;1.75;0.90;;;17.80;52.80;;;;;;4498335;31;20186;-66
2022/01/07 06:54:16;;;;;;;0.80;0.50;;;17.80;52.90;;;;;;4484376;31;20135;-66
2022/01/07 06:56:43;;;;;;;1.85;0.85;;;17.80;52.90;;;;;;4498409;31;20108;-65
2022/01/07 06:59:12;;;;;;;1.38;0.80;;;17.80;52.90;;;;;;4497910;31;20238;-65
2022/01/07 07:01:39;;;;;;;1.35;0.70;;;17.70;52.90;;;;;;4497007;31;20181;-66
2022/01/07 07:04:05;;;;;;;1.63;0.80;;;17.80;52.90;;;;;;4497891;31;20121;-66
2022/01/07 07:06:31;;;;;;;1.15;0.60;;;17.70;52.90;;;;;;4498166;31;20510;-65
2022/01/07 07:08:57;;;;;;;1.13;0.80;;;17.80;53.00;;;;;;4497738;31;20132;-66
2022/01/07 07:11:23;;;;;;;1.48;0.90;;;17.70;52.90;;;;;;4498064;31;20186;-66
2022/01/07 07:13:49;;;;;;;0.90;0.60;;;17.70;53.00;;;;;;4483937;31;20132;-65
2022/01/07 07:16:15;;;;;;;1.48;0.80;;;17.70;53.00;;;;;;4497870;31;20154;-66
2022/01/07 07:18:41;;;;;;;1.10;0.70;;;17.70;53.00;;;;;;4497830;31;20136;-66
2022/01/07 07:21:07;;;;;;;1.45;0.68;;;17.70;53.00;;;;;;4483524;31;20194;-66
2022/01/07 07:23:33;;;;;;;1.55;0.70;;;17.70;53.00;;;;;;4497765;31;20129;-65
2022/01/07 07:25:59;;;;;;;1.10;0.80;;;17.70;53.00;;;;;;4497497;31;20143;-66
2022/01/07 07:28:26;;;;;;;1.67;0.82;;;17.60;53.00;;;;;;4496650;31;20148;-66
2022/01/07 07:30:55;;;;;;;0.70;0.60;;;17.60;53.00;;;;;;4497861;31;20182;-66
2022/01/07 07:38:36;;;;;;;1.75;0.70;;;17.60;53.10;;;;;;4485642;31;20262;-66
2022/01/07 07:41:02;;;;;;;1.35;0.70;;;17.60;53.20;;;;;;4497336;31;20187;-66
2022/01/07 07:43:28;;;;;;;1.23;0.60;;;17.60;53.10;;;;;;4497552;31;20702;-65
2022/01/07 07:45:54;;;;;;;1.83;0.80;;;17.60;53.10;;;;;;4483194;31;20140;-66
2022/01/07 07:48:19;;;;;;;0.98;0.63;;;17.60;53.10;;;;;;4496395;31;20129;-66
2022/01/07 07:50:45;;;;;;;1.48;0.80;;;17.60;53.10;;;;;;4497465;31;20117;-66
2022/01/07 07:53:11;;;;;;;1.75;0.68;;;17.60;53.20;;;;;;4482918;31;20125;-66
2022/01/07 07:55:37;;;;;;;1.35;0.80;;;17.60;53.20;;;;;;4496471;31;20144;-66
2022/01/07 07:58:03;;;;;;;0.80;0.60;;;17.60;53.20;;;;;;4497100;31;20108;-66
2022/01/07 08:00:31;;;;;;;1.77;0.80;;;17.50;53.20;;;;;;4497338;31;20143;-65
2022/01/07 08:03:01;;;;;;;0.77;0.50;;;17.60;53.30;;;;;;4483289;31;20139;-66
2022/01/07 08:05:27;;;;;;;2.08;0.80;;;17.50;53.20;;;;;;4483283;31;20140;-66
2022/01/07 08:07:53;;;;;;;2.17;0.77;;;17.50;53.30;;;;;;4483025;31;20124;-66
2022/01/07 08:10:23;;;;;;;1.20;0.63;;;17.50;53.30;;;;;;4482573;31;20152;-65
2022/01/07 08:13:14;;;;;;;2.22;0.80;;;17.50;53.30;;;;;;4497094;31;20121;-66
2022/01/07 08:18:27;;;;;;;3.22;1.65;;;17.40;53.30;;;;;;4497012;31;20155;-64
2022/01/07 08:20:55;;;;;;;3.53;2.10;;;17.50;52.60;;;;;;4497049;31;20124;-64
2022/01/07 08:23:21;;;;;;;4.05;1.95;;;17.40;51.80;;;;;;4495570;31;20217;-65
2022/01/07 08:25:48;;;;;;;11.30;1.77;;;17.40;51.60;;;;;;4496843;31;20128;-66
2022/01/07 08:28:15;;;;;;;3.47;1.58;;;17.40;52.00;;;;;;4496754;31;20148;-65
2022/01/07 08:36:11;;;;;;;2.65;1.40;;;17.30;52.60;;;;;;4496580;31;20498;-64
2022/01/07 08:38:37;;;;;;;5.57;1.38;;;17.30;52.70;;;;;;4496730;31;20151;-65
2022/01/07 08:41:03;;;;;;;4.30;1.48;;;17.30;52.70;;;;;;4496888;31;20113;-66
2022/01/07 08:43:29;;;;;;;4.05;1.40;;;17.30;52.70;;;;;;4496510;31;20190;-66
2022/01/07 08:45:55;;;;;;;6.35;1.65;;;17.30;52.70;;;;;;4496862;31;20139;-65
2022/01/07 08:48:21;;;;;;;4.20;1.55;;;17.30;52.70;;;;;;4496427;31;20636;-67
2022/01/07 08:50:47;;;;;;;4.38;1.42;;;17.40;52.70;;;;;;4496886;31;20125;-65
2022/01/07 08:53:13;;;;;;;7.47;1.45;;;17.40;52.70;;;;;;4496215;32;20180;-65
2022/01/07 08:55:39;;;;;;;2.85;1.13;;;17.50;52.70;;;;;;4496620;32;20135;-65
2022/01/07 08:58:06;;;;;;;2.53;0.98;;;17.50;52.70;;;;;;4496646;32;20136;-66
2022/01/07 09:00:35;;;;;;;2.50;1.42;;;17.60;52.60;;;;;;4496698;32;20116;-65
2022/01/07 09:03:02;;;;;;;3.25;1.33;;;17.70;52.40;;;;;;4469319;32;20185;-66
2022/01/07 09:05:27;;;;;;;2.65;1.10;;;17.80;52.30;;;;;;4496390;32;20744;-64
2022/01/07 09:07:53;;;;;;;3.60;1.13;;;17.90;52.10;;;;;;4496512;32;20251;-66
2022/01/07 09:10:19;;;;;;;5.03;1.30;;;18.00;51.80;;;;;;4496202;32;20262;-66
2022/01/07 09:12:46;;;;;;;6.07;1.33;;;18.20;51.60;;;;;;4496352;32;20123;-65
2022/01/07 09:15:12;;;;;;;3.58;1.20;;;18.30;51.40;;;;;;4496516;32;20125;-65
2022/01/07 09:17:39;;;;;;;2.83;1.15;;;18.40;51.20;;;;;;4496520;32;20250;-65
2022/01/07 09:20:06;;;;;;;2.13;1.00;;;18.50;51.00;;;;;;4496656;32;20222;-66
2022/01/07 09:22:35;;;;;;;3.17;1.20;;;18.60;50.80;;;;;;4496458;32;20460;-66
2022/01/07 09:25:04;;;;;;;7.40;1.20;;;18.70;50.50;;;;;;4482655;31;20136;-65
2022/01/07 09:27:34;;;;;;;2.92;1.10;;;18.80;50.30;;;;;;4498007;31;20140;-66
2022/01/07 09:30:00;;;;;;;1.95;0.93;;;18.90;50.10;;;;;;4485246;31;20128;-67
2022/01/07 09:32:27;;;;;;;3.33;1.20;;;19.00;49.80;;;;;;4499427;31;20488;-66
2022/01/07 09:34:53;;;;;;;4.03;1.00;;;19.20;49.70;;;;;;4499271;31;20125;-66
2022/01/07 09:37:19;;;;;;;4.95;1.23;;;19.20;49.40;;;;;;4499141;31;20136;-67
2022/01/07 09:39:45;;;;;;;4.20;1.20;;;19.40;49.20;;;;;;4499324;31;20117;-66
2022/01/07 09:42:11;;;;;;;2.72;1.02;;;19.50;49.10;;;;;;4499448;31;20278;-66
2022/01/07 09:44:38;;;;;;;3.88;1.17;;;19.50;48.90;;;;;;4499069;31;20147;-66
2022/01/07 09:47:05;;;;;;;3.30;0.80;;;19.60;48.70;;;;;;4499174;31;20555;-66
2022/01/07 09:49:34;;;;;;;2.67;0.93;;;19.70;48.50;;;;;;4498064;31;20191;-66
2022/01/07 09:52:01;;;;;;;2.60;0.80;;;19.80;48.80;;;;;;4483266;32;20275;-65
2022/01/07 09:54:28;;;;;;;1.55;0.90;;;19.90;48.10;;;;;;4483168;32;20150;-66
2022/01/07 09:56:54;;;;;;;4.95;0.93;;;19.90;47.90;;;;;;4483351;32;20133;-65
2022/01/07 09:59:19;;;;;;;3.35;0.98;;;20.00;47.90;;;;;;4492567;31;20139;-64
2022/01/07 10:01:59;;;;;;;5.40;1.42;;;20.00;47.70;;;;;;4498039;31;20113;-64
2022/01/07 10:04:43;;;;;;;3.47;1.67;;;20.00;47.50;;;;;;4496364;31;20147;-64
2022/01/07 10:07:10;;;;;;;6.43;1.90;;;20.00;47.10;;;;;;4497854;31;20254;-64
2022/01/07 10:09:40;;;;;;;5.68;1.95;;;20.00;46.90;;;;;;4498784;31;20125;-64
2022/01/07 10:12:07;;;;;;;3.75;1.90;;;19.90;46.70;;;;;;4488534;31;20133;-65
2022/01/07 10:14:36;;;;;;;4.75;1.90;;;19.80;46.60;;;;;;4482712;32;20143;-64
2022/01/07 10:17:06;;;;;;;6.38;2.25;;;19.80;46.90;;;;;;4483017;32;20139;-64
2022/01/07 10:19:39;;;;;;;5.40;2.20;;;19.70;47.00;;;;;;4483071;32;20168;-64
2022/01/07 10:22:09;;;;;;;5.07;2.03;;;19.70;47.20;;;;;;4483100;32;20129;-65
2022/01/07 10:24:57;;;;;;;6.03;1.70;;;19.70;47.40;;;;;;4482744;31;20160;-64
2022/01/07 10:27:25;;;;;;;3.38;1.45;;;19.70;47.70;;;;;;4482407;31;20121;-65
2022/01/07 10:29:52;;;;;;;6.82;1.70;;;19.80;47.80;;;;;;4482976;32;20125;-66
2022/01/07 10:32:23;;;;;;;4.50;1.50;;;19.80;47.70;;;;;;4481771;32;20565;-65
2022/01/07 10:35:07;;;;;;;6.82;1.48;;;19.90;47.70;;;;;;4482649;32;20314;-65
2022/01/07 10:37:45;;;;;;;5.75;1.63;;;20.00;47.60;;;;;;4481947;32;20206;-65
2022/01/07 10:40:22;;;;;;;7.18;1.92;;;20.10;47.40;;;;;;4482612;32;20282;-66
2022/01/07 10:42:48;;;;;;;5.85;1.48;;;20.10;48.10;;;;;;4484024;31;20596;-65
2022/01/07 10:45:14;;;;;;;4.65;1.45;;;20.20;46.90;;;;;;4497665;31;20121;-65
2022/01/07 10:47:40;;;;;;;4.60;1.40;;;20.30;46.80;;;;;;4497446;31;20205;-66
2022/01/07 10:50:13;;;;;;;5.40;1.25;;;20.40;46.70;;;;;;4497824;31;20140;-65
2022/01/07 10:52:39;;;;;;;7.07;1.75;;;20.50;46.70;;;;;;4497938;31;20595;-64
2022/01/07 10:55:10;;;;;;;5.28;1.40;;;20.60;46.50;;;;;;4498406;31;20132;-64
2022/01/07 10:57:44;;;;;;;6.28;1.30;;;20.70;46.40;;;;;;4497716;31;20133;-64
2022/01/07 11:00:19;;;;;;;4.45;1.60;;;20.80;46.20;;;;;;4497531;31;20143;-64
2022/01/07 11:02:48;;;;;;;6.40;1.30;;;20.90;46.10;;;;;;4485583;31;20132;-64
2022/01/07 11:05:14;;;;;;;2.63;1.00;;;20.90;45.90;;;;;;4467842;32;20144;-66
2022/01/07 11:07:42;;;;;;;4.40;1.20;;;21.00;45.80;;;;;;4467858;32;20152;-65
2022/01/07 11:10:08;;;;;;;5.35;1.25;;;21.10;45.80;;;;;;4482063;32;20214;-64
2022/01/07 11:12:35;;;;;;;5.75;1.48;;;21.10;45.80;;;;;;4482252;32;20129;-64
2022/01/07 11:15:05;;;;;;;2.97;1.48;;;21.10;45.70;;;;;;4482236;32;20226;-64
2022/01/07 11:17:31;;;;;;;3.28;1.00;;;21.20;45.70;;;;;;4487903;31;20143;-65
2022/01/07 11:20:01;;;;;;;4.47;1.33;;;21.20;45.60;;;;;;4497115;31;20172;-65
2022/01/07 11:22:28;;;;;;;4.32;1.30;;;21.20;45.60;;;;;;4495958;31;20151;-65
2022/01/07 11:24:57;;;;;;;3.05;1.45;;;21.20;45.60;;;;;;4482724;31;20325;-64
2022/01/07 11:27:27;;;;;;;4.47;1.33;;;21.20;45.60;;;;;;4496698;31;20259;-65
2022/01/07 11:29:59;;;;;;;5.45;1.02;;;21.20;45.70;;;;;;4496080;31;20144;-67
2022/01/07 11:32:25;;;;;;;4.13;1.15;;;21.20;45.60;;;;;;4466764;31;58396;-65
2022/01/07 11:34:56;;;;;;;5.65;1.05;;;21.20;45.70;;;;;;4494652;31;20505;-66
2022/01/07 11:37:39;;;;;;;7.68;1.10;;;21.20;45.70;;;;;;4494767;31;20893;-65
2022/01/07 11:40:06;;;;;;;3.50;1.10;;;21.20;45.80;;;;;;4480733;31;20190;-66
2022/01/07 11:42:47;;;;;;;2.15;0.85;;;21.20;45.80;;;;;;4494302;31;20711;-66
2022/01/07 11:45:41;;;;;;;3.38;1.10;;;21.20;45.80;;;;;;4492113;31;20143;-66
2022/01/07 11:48:09;;;;;;;3.50;1.08;;;21.30;46.90;;;;;;4494954;31;20140;-66
2022/01/07 11:50:59;;;;;;;3.83;0.93;;;21.30;45.90;;;;;;4489651;31;20301;-65
2022/01/07 11:53:47;;;;;;;2.55;1.00;;;21.30;45.80;;;;;;4484719;31;20117;-64
2022/01/07 11:56:33;;;;;;;2.58;0.80;;;21.30;45.60;;;;;;4474473;31;20514;-64
2022/01/07 11:59:11;;;;;;;1.83;0.77;;;21.30;45.40;;;;;;4495706;31;20479;-65
2022/01/07 12:01:40;;;;;;;3.70;1.05;;;21.30;45.50;;;;;;4496569;31;20131;-64
2022/01/07 12:04:19;;;;;;;7.38;1.00;;;21.20;46.60;;;;;;4482815;31;20137;-64
2022/01/07 12:06:47;;;;;;;4.90;1.38;;;21.20;45.60;;;;;;4484399;31;20152;-64
2022/01/07 12:09:22;;;;;;;2.42;1.08;;;21.10;45.80;;;;;;4496111;31;20125;-64
2022/01/07 12:11:51;;;;;;;3.08;0.90;;;21.00;46.00;;;;;;4495006;31;20131;-64
2022/01/07 12:14:20;;;;;;;2.67;1.02;;;20.90;46.30;;;;;;4494873;31;20143;-64
2022/01/07 12:16:49;;;;;;;2.75;1.00;;;20.80;46.60;;;;;;4495861;31;20147;-64
2022/01/07 12:19:18;;;;;;;1.63;0.70;;;20.80;46.90;;;;;;4496097;31;20139;-64
2022/01/07 12:21:49;;;;;;;3.58;1.20;;;20.70;47.10;;;;;;4495788;31;20289;-64
2022/01/07 12:24:17;;;;;;;4.00;1.10;;;20.70;47.20;;;;;;4496149;31;20143;-64
2022/01/07 12:26:43;;;;;;;3.90;1.10;;;20.70;47.30;;;;;;4481842;31;20237;-64
2022/01/07 12:29:20;;;;;;;2.40;0.80;;;20.70;47.40;;;;;;4479925;31;20606;-64
2022/01/07 12:31:53;;;;;;;3.80;1.13;;;20.70;47.50;;;;;;4482542;31;30413;-64
2022/01/07 12:34:27;;;;;;;2.83;1.00;;;20.70;47.50;;;;;;4479172;31;20531;-64
2022/01/07 12:37:06;;;;;;;5.20;0.90;;;20.70;47.50;;;;;;4477674;31;20137;-64
2022/01/07 12:39:38;;;;;;;2.42;0.90;;;20.80;47.50;;;;;;4480416;31;20201;-64
2022/01/07 12:42:06;;;;;;;4.32;1.25;;;20.80;47.50;;;;;;4480768;31;20490;-64
2022/01/07 12:44:40;;;;;;;3.28;0.98;;;20.90;47.40;;;;;;4480581;31;20132;-64
2022/01/07 12:47:06;;;;;;;;;;;21.00;47.50;;;;;;4492227;31;20254;-63
2022/01/07 12:49:39;;;;;;;2.03;0.90;;;21.10;47.40;;;;;;4490059;31;20055;-64
2022/01/07 12:52:36;;;;;;;5.43;1.48;;;21.10;47.40;;;;;;4489758;31;20121;-64
2022/01/07 12:55:09;;;;;;;2.80;0.90;;;21.20;47.50;;;;;;4467856;32;20129;-63
2022/01/07 12:57:42;;;;;;;3.67;1.38;;;21.20;47.60;;;;;;4482455;31;20195;-63
2022/01/07 13:00:18;;;;;;;3.30;1.08;;;21.30;47.70;;;;;;4480975;32;20152;-63
2022/01/07 13:02:56;;;;;;;4.20;1.10;;;21.30;47.70;;;;;;4487003;31;20140;-63
2022/01/07 13:05:31;;;;;;;5.28;1.30;;;21.30;48.00;;;;;;4498126;31;20172;-65